^^
Station Historical Data
Daily Summary for September 12, 2017 Units:  English    Metric   Both
« Previous Day
Next Day »
Daily Weekly Monthly Yearly Custom
  High: Low: Average:
Temperature: 78.8 °F 56.5 °F 66.5 °F
Dew Point: 62.2 °F 53.4 °F 57.9 °F
Humidity: 96% 51% 75%
Wind Speed: 5.0mph 0.0mph 0.5mph
Wind Gust: 8.0mph - -
Wind- - WSW
Pressure: 30.13 in 29.92 in -
Precipitation: 0.00 in    
Historical Graphs
 
 
Tabular Data for September 12, 2017
Time Temperature Dew Point Pressure Wind Wind Speed Wind Gust Humidity Rainfall Rate (Hourly) Conditions
00:00 59.6 °F 57.0 °F 30.13 in Calm   1.0 mph 91% 0.00 in CLR
00:15 59.2 °F 56.5 °F 30.13 in Calm     91% 0.00 in CLR
00:30 58.2 °F 55.9 °F 30.12 in Calm     92% 0.00 in CLR
00:45 58.9 °F 57.1 °F 30.12 in Calm   1.0 mph 94% 0.00 in CLR
01:00 59.0 °F 57.0 °F 30.12 in Calm   1.0 mph 93% 0.00 in CLR
02:15 57.2 °F 55.4 °F 30.10 in Calm     94% 0.00 in CLR
02:30 57.9 °F 56.4 °F 30.10 in Calm     95% 0.00 in CLR
02:45 57.6 °F 56.2 °F 30.09 in Calm     95% 0.00 in CLR
03:00 58.0 °F 56.6 °F 30.09 in Calm   1.0 mph 95% 0.00 in CLR
03:15 58.8 °F 57.7 °F 30.09 in Calm   2.0 mph 96% 0.00 in CLR
04:00 58.2 °F 56.5 °F 30.08 in Calm   2.0 mph 94% 0.00 in CLR
04:15 57.9 °F 56.1 °F 30.08 in Calm   2.0 mph 94% 0.00 in CLR
04:30 57.3 °F 55.3 °F 30.08 in Calm   1.0 mph 93% 0.00 in CLR
04:45 57.7 °F 54.8 °F 30.08 in Calm   2.0 mph 90% 0.00 in CLR
05:00 58.2 °F 54.7 °F 30.07 in Calm   4.0 mph 88% 0.00 in CLR
05:15 57.8 °F 54.0 °F 30.08 in Calm   1.0 mph 87% 0.00 in CLR
05:30 57.3 °F 53.8 °F 30.07 in Calm   2.0 mph 88% 0.00 in CLR
05:45 57.2 °F 53.7 °F 30.07 in Calm   2.0 mph 88% 0.00 in CLR
06:00 57.0 °F 53.5 °F 30.06 in Calm   1.0 mph 88% 0.00 in CLR
06:15 57.1 °F 53.6 °F 30.07 in Calm   2.0 mph 88% 0.00 in CLR
06:30 57.0 °F 53.5 °F 30.08 in Calm   1.0 mph 88% 0.00 in CLR
06:45 56.6 °F 53.4 °F 30.07 in Calm   1.0 mph 89% 0.00 in CLR
07:00 56.5 °F 53.6 °F 30.07 in Calm   1.0 mph 90% 0.00 in CLR
07:15 57.1 °F 53.9 °F 30.07 in Calm   2.0 mph 89% 0.00 in CLR
07:30 57.6 °F 54.1 °F 30.08 in Calm   2.0 mph 88% 0.00 in CLR
07:45 58.3 °F 54.4 °F 30.07 in Calm   2.0 mph 87% 0.00 in CLR
08:00 58.7 °F 54.5 °F 30.06 in Calm   2.0 mph 86% 0.00 in CLR
08:15 59.2 °F 54.7 °F 30.06 in Calm   5.0 mph 85% 0.00 in CLR
08:30 60.0 °F 55.2 °F 30.06 in Calm   3.0 mph 84% 0.00 in CLR
08:45 61.1 °F 55.6 °F 30.05 in Calm   4.0 mph 82% 0.00 in CLR
09:00 62.3 °F 56.0 °F 30.06 in Calm   3.0 mph 80% 0.00 in CLR
09:15 63.0 °F 56.8 °F 30.06 in Calm   5.0 mph 80% 0.00 in CLR
09:30 64.5 °F 57.4 °F 30.06 in Calm   3.0 mph 78% 0.00 in CLR
09:45 64.8 °F 57.0 °F 30.06 in NW 2.0 mph 4.0 mph 76% 0.00 in CLR
10:00 64.3 °F 57.3 °F 30.06 in Calm   5.0 mph 78% 0.00 in CLR
10:15 64.8 °F 58.1 °F 30.06 in NNW 3.0 mph 6.0 mph 79% 0.00 in CLR
10:45 66.6 °F 58.8 °F 30.05 in West 1.0 mph 4.0 mph 76% 0.00 in CLR
11:00 68.1 °F 59.9 °F 30.05 in Calm   3.0 mph 75% 0.00 in CLR
11:15 69.6 °F 59.8 °F 30.05 in WNW 1.0 mph 5.0 mph 71% 0.00 in CLR
11:30 69.2 °F 59.4 °F 30.05 in WNW 2.0 mph 4.0 mph 71% 0.00 in CLR
11:45 70.6 °F 60.7 °F 30.04 in SW 1.0 mph 5.0 mph 71% 0.00 in CLR
12:00 70.5 °F 59.8 °F 30.04 in West 2.0 mph 5.0 mph 69% 0.00 in CLR
12:15 71.0 °F 60.3 °F 30.03 in NW 2.0 mph 4.0 mph 69% 0.00 in CLR
12:30 72.0 °F 60.8 °F 30.03 in WSW 1.0 mph 5.0 mph 68% 0.00 in CLR
12:45 73.5 °F 59.6 °F 30.03 in WSW 2.0 mph 6.0 mph 62% 0.00 in CLR
13:00 74.5 °F 60.2 °F 30.02 in SW 2.0 mph 5.0 mph 61% 0.00 in CLR
13:15 75.7 °F 60.8 °F 30.01 in Calm   4.0 mph 60% 0.00 in CLR
13:30 75.1 °F 60.8 °F 30.01 in NW 1.0 mph 5.0 mph 61% 0.00 in CLR
13:45 74.4 °F 60.1 °F 30.01 in West 2.0 mph 6.0 mph 61% 0.00 in CLR
14:00 75.7 °F 60.8 °F 30.00 in Calm   4.0 mph 60% 0.00 in CLR
14:15 77.6 °F 60.6 °F 29.99 in SW 1.0 mph 3.0 mph 56% 0.00 in CLR
14:30 77.0 °F 59.1 °F 29.99 in WSW 2.0 mph 5.0 mph 54% 0.00 in CLR
14:45 77.2 °F 59.7 °F 29.98 in SSW 2.0 mph 5.0 mph 55% 0.00 in CLR
15:00 77.5 °F 60.6 °F 29.98 in South 3.0 mph 7.0 mph 56% 0.00 in CLR
15:15 77.4 °F 61.0 °F 29.98 in SSW 2.0 mph 8.0 mph 57% 0.00 in CLR
15:30 77.5 °F 60.1 °F 29.97 in SSW 2.0 mph 6.0 mph 55% 0.00 in CLR
15:45 77.7 °F 59.7 °F 29.97 in SSW 5.0 mph 7.0 mph 54% 0.00 in CLR
16:00 78.1 °F 60.1 °F 29.96 in SW 1.0 mph 6.0 mph 54% 0.00 in CLR
16:15 78.5 °F 59.9 °F 29.96 in SSW 2.0 mph 7.0 mph 53% 0.00 in CLR
16:30 78.8 °F 59.1 °F 29.96 in WSW 1.0 mph 7.0 mph 51% 0.00 in CLR
17:00 78.2 °F 59.1 °F 29.94 in SSW 1.0 mph 6.0 mph 52% 0.00 in CLR
17:15 78.3 °F 59.8 °F 29.94 in SW 1.0 mph 4.0 mph 53% 0.00 in CLR
17:30 78.1 °F 60.1 °F 29.94 in Calm   3.0 mph 54% 0.00 in CLR
17:45 77.3 °F 61.9 °F 29.94 in Calm   2.0 mph 59% 0.00 in CLR
18:15 75.6 °F 61.6 °F 29.94 in Calm   1.0 mph 62% 0.00 in CLR
18:30 74.5 °F 61.0 °F 29.93 in Calm   1.0 mph 63% 0.00 in CLR
18:45 73.2 °F 62.0 °F 29.93 in Calm   1.0 mph 68% 0.00 in CLR
19:00 71.3 °F 62.2 °F 29.93 in Calm     73% 0.00 in CLR
19:15 69.9 °F 61.2 °F 29.93 in Calm     74% 0.00 in CLR
19:30 68.1 °F 59.8 °F 29.93 in Calm   1.0 mph 75% 0.00 in CLR
19:45 69.4 °F 58.8 °F 29.93 in SSW 1.0 mph 5.0 mph 69% 0.00 in CLR
20:00 69.3 °F 59.1 °F 29.93 in Calm   3.0 mph 70% 0.00 in CLR
20:15 68.7 °F 58.9 °F 29.93 in Calm   1.0 mph 71% 0.00 in CLR
20:30 68.1 °F 58.7 °F 29.93 in Calm   1.0 mph 72% 0.00 in CLR
20:45 67.2 °F 58.6 °F 29.93 in Calm   1.0 mph 74% 0.00 in CLR
21:00 66.3 °F 58.5 °F 29.93 in Calm   1.0 mph 76% 0.00 in CLR
21:15 66.4 °F 58.2 °F 29.93 in Calm   1.0 mph 75% 0.00 in CLR
21:30 66.2 °F 58.4 °F 29.93 in Calm   2.0 mph 76% 0.00 in CLR
21:45 67.2 °F 58.2 °F 29.93 in Calm   4.0 mph 73% 0.00 in CLR
22:00 66.4 °F 58.3 °F 29.92 in Calm   1.0 mph 75% 0.00 in CLR
22:15 65.9 °F 58.2 °F 29.93 in Calm   1.0 mph 76% 0.00 in CLR
22:30 66.1 °F 58.0 °F 29.93 in Calm   1.0 mph 75% 0.00 in CLR
22:45 65.0 °F 58.0 °F 29.93 in Calm   2.0 mph 78% 0.00 in CLR
23:00 65.3 °F 58.3 °F 29.93 in Calm   1.0 mph 78% 0.00 in CLR
23:45 64.5 °F 57.9 °F 29.92 in Calm     79% 0.00 in CLR
TarryTown NY Weather
Compliments of Weather Underground - 1.5 mb